Aeroporto :
LOGIN :

Iscrizione | Disclaimer

   EN    FR    IT 

 










Sommario :    VFR   VFR Marginale   IFR   IFR Intensivo   IFR Molto Intensivo
Visibilità : 
Base nubi : 
>= 8 km
>= 3000ft
5 / 8 km
1000 / 3000 ft
1500m / 5 km
500 / 1000 ft
800 / 1500m
200 / 500 ft
< 800m
< 200 ft
Simboli :   Temporali  Nebbia  Neve Forte  Precipitazioni Forti  Vento > 20 kt
SIGMETs :   Varie  Temporali  Ghiacco  Turbolenza  Onda orograficha  Ceneri Vulcaniche






- Altitudine del aeroporto : 359 ft
- Codice IATA : DEB


LHDC - Debrecen

ULTIMO METAR :
  • 270545Z AUTO VRB03KT 4200 BR NSC 00/00 Q1018 NOSIG

METARs OBSOLETI :
  • 270515Z AUTO VRB03KT 3500 BR NSC M00/M00 Q1018 NOSIG
  • 270445Z AUTO 02004KT 300V070 4500 BR NSC 00/00 Q1018 NOSIG
  • 270415Z AUTO 06003KT 4000 BR NSC M00/M00 Q1018 NOSIG
  • 270345Z AUTO 03004KT 360V060 4100 BR NSC M00/M00 Q1018 NOSIG
  • 270315Z AUTO 03005KT 3900 BR NSC M00/M00 Q1018

TAF TAF LHDC
Valido dal 27 a 06 ore il 27 a 15 ore UTC


270515Z 2706/2715 VRB03KT 5000 BR NSC
PROB30
TEMPO 2706/2709 1500 -FZRA BR BKN005 BKN025
TEMPO 2709/2715 3000 -RA BR SCT005 BKN020 OVC060



MetMap, La meteo Aeronautica in un colpo d'occhio ! - Copyright ORBIFLY Dicembre 2007 - Disclaimer

ORBIFLY MET'MAP TEAM :

Programmazione e sviluppo : Alexandra Zaïnal
Concezione : Baudouin d'Aumeries
Aiuto per la programmazione : Marc-Olivier Méhu
Supporto tecnico e logistico : Manuel Goepfert
Aiuto per la traduzione : Arnaldo La Scala

Contatto : metmap@orbifly.com




FONTI E CREDITI :

   NOAA